Fountain Hill, Pennsylvania
Current Conditions -  °F | °C
As of 12:51 PM on Saturday 20 Dec 2014 (Local Time) from KABE Reporting Station
Overcast Overcast  
Wind Chill: 33°   Ceiling: 2400
Heat Index: 33°   Visibility: 10mi
Dew Point: 22°   Wind: 3mph
Humidity: 64%   Direction: 10°N
Pressure: 30.24"   Gusts: NA
Location:  40.5862°N, 75.372°W
Report Text: KABE 201751Z 01003KT 10SM OVC024 01/M06 A3024 RMK AO2 SLP245 T00061056 10011 21006 58020
Loading
Personal Weather Stations






























Interactive Weather Map New forecast layout! Learn more

10-Day Weather Forecast

Advertisements
Track Severe Weather on mobile